sensor_id;sensor_type;location;lat;lon;timestamp;P1;durP1;ratioP1;P2;durP2;ratioP2
27161;SDS011;54464;50.558;9.704;2023-06-22T00:01:14;11.47;;;10.27;;
27161;SDS011;54464;50.558;9.704;2023-06-22T00:03:40;15.10;;;12.47;;
27161;SDS011;54464;50.558;9.704;2023-06-22T00:06:05;16.20;;;13.33;;
27161;SDS011;54464;50.558;9.704;2023-06-22T00:08:31;17.70;;;14.13;;
27161;SDS011;54464;50.558;9.704;2023-06-22T00:10:56;14.70;;;13.30;;
27161;SDS011;54464;50.558;9.704;2023-06-22T00:13:25;13.23;;;11.83;;
27161;SDS011;54464;50.558;9.704;2023-06-22T00:15:50;13.17;;;11.87;;
27161;SDS011;54464;50.558;9.704;2023-06-22T00:18:16;12.43;;;11.20;;
27161;SDS011;54464;50.558;9.704;2023-06-22T00:20:41;11.90;;;10.77;;
27161;SDS011;54464;50.558;9.704;2023-06-22T00:23:07;11.07;;;9.97;;
27161;SDS011;54464;50.558;9.704;2023-06-22T00:25:34;11.20;;;9.73;;
27161;SDS011;54464;50.558;9.704;2023-06-22T00:28:05;10.37;;;9.47;;
27161;SDS011;54464;50.558;9.704;2023-06-22T00:30:31;11.50;;;10.37;;
27161;SDS011;54464;50.558;9.704;2023-06-22T00:33:00;11.23;;;9.73;;
27161;SDS011;54464;50.558;9.704;2023-06-22T00:35:26;11.03;;;9.90;;
27161;SDS011;54464;50.558;9.704;2023-06-22T00:37:54;10.07;;;9.07;;
27161;SDS011;54464;50.558;9.704;2023-06-22T00:40:25;10.67;;;9.67;;
27161;SDS011;54464;50.558;9.704;2023-06-22T00:42:52;10.03;;;9.13;;
27161;SDS011;54464;50.558;9.704;2023-06-22T00:45:28;10.43;;;9.43;;
27161;SDS011;54464;50.558;9.704;2023-06-22T00:47:57;9.73;;;8.83;;
27161;SDS011;54464;50.558;9.704;2023-06-22T00:50:27;9.50;;;8.60;;
27161;SDS011;54464;50.558;9.704;2023-06-22T00:53:06;9.77;;;8.87;;
27161;SDS011;54464;50.558;9.704;2023-06-22T00:55:43;9.60;;;8.70;;
27161;SDS011;54464;50.558;9.704;2023-06-22T00:58:11;10.00;;;9.10;;
27161;SDS011;54464;50.558;9.704;2023-06-22T01:00:47;10.23;;;9.07;;
27161;SDS011;54464;50.558;9.704;2023-06-22T01:03:16;11.40;;;9.33;;
27161;SDS011;54464;50.558;9.704;2023-06-22T01:05:42;10.47;;;9.30;;
27161;SDS011;54464;50.558;9.704;2023-06-22T01:11:16;10.63;;;9.63;;
27161;SDS011;54464;50.558;9.704;2023-06-22T01:16:26;9.87;;;8.83;;
27161;SDS011;54464;50.558;9.704;2023-06-22T01:19:00;9.37;;;8.47;;
27161;SDS011;54464;50.558;9.704;2023-06-22T01:21:31;9.53;;;8.63;;
27161;SDS011;54464;50.558;9.704;2023-06-22T01:24:09;10.70;;;9.70;;
27161;SDS011;54464;50.558;9.704;2023-06-22T01:26:43;10.70;;;9.67;;
27161;SDS011;54464;50.558;9.704;2023-06-22T01:29:21;10.67;;;9.67;;
27161;SDS011;54464;50.558;9.704;2023-06-22T01:31:49;11.07;;;9.97;;
27161;SDS011;54464;50.558;9.704;2023-06-22T01:34:22;10.73;;;9.10;;
27161;SDS011;54464;50.558;9.704;2023-06-22T01:36:51;10.93;;;9.90;;
27161;SDS011;54464;50.558;9.704;2023-06-22T01:39:17;11.80;;;10.60;;
27161;SDS011;54464;50.558;9.704;2023-06-22T01:41:44;12.13;;;10.90;;
27161;SDS011;54464;50.558;9.704;2023-06-22T01:44:10;12.73;;;11.43;;
27161;SDS011;54464;50.558;9.704;2023-06-22T01:46:37;12.30;;;11.10;;
27161;SDS011;54464;50.558;9.704;2023-06-22T01:49:09;11.73;;;10.63;;
27161;SDS011;54464;50.558;9.704;2023-06-22T01:51:35;12.33;;;11.13;;
27161;SDS011;54464;50.558;9.704;2023-06-22T01:54:05;11.70;;;10.60;;
27161;SDS011;54464;50.558;9.704;2023-06-22T01:56:35;12.93;;;11.37;;
27161;SDS011;54464;50.558;9.704;2023-06-22T01:59:11;12.40;;;11.17;;
27161;SDS011;54464;50.558;9.704;2023-06-22T02:01:48;11.53;;;10.43;;
27161;SDS011;54464;50.558;9.704;2023-06-22T02:04:21;12.17;;;10.97;;
27161;SDS011;54464;50.558;9.704;2023-06-22T02:06:54;14.53;;;11.10;;
27161;SDS011;54464;50.558;9.704;2023-06-22T02:09:23;13.30;;;12.00;;
27161;SDS011;54464;50.558;9.704;2023-06-22T02:11:59;12.03;;;10.83;;
27161;SDS011;54464;50.558;9.704;2023-06-22T02:14:27;12.73;;;11.50;;
27161;SDS011;54464;50.558;9.704;2023-06-22T02:16:59;12.73;;;11.43;;
27161;SDS011;54464;50.558;9.704;2023-06-22T02:19:27;13.07;;;11.87;;
27161;SDS011;54464;50.558;9.704;2023-06-22T02:21:58;12.77;;;11.57;;
27161;SDS011;54464;50.558;9.704;2023-06-22T02:24:26;12.77;;;11.47;;
27161;SDS011;54464;50.558;9.704;2023-06-22T02:26:58;13.10;;;11.80;;
27161;SDS011;54464;50.558;9.704;2023-06-22T02:29:24;13.80;;;12.07;;
27161;SDS011;54464;50.558;9.704;2023-06-22T02:31:58;11.93;;;10.73;;
27161;SDS011;54464;50.558;9.704;2023-06-22T02:34:26;12.83;;;10.83;;
27161;SDS011;54464;50.558;9.704;2023-06-22T02:37:01;12.27;;;11.00;;
27161;SDS011;54464;50.558;9.704;2023-06-22T02:39:27;11.33;;;10.23;;
27161;SDS011;54464;50.558;9.704;2023-06-22T02:41:54;11.43;;;10.10;;
27161;SDS011;54464;50.558;9.704;2023-06-22T02:44:19;11.60;;;10.43;;
27161;SDS011;54464;50.558;9.704;2023-06-22T02:46:57;12.97;;;11.63;;
27161;SDS011;54464;50.558;9.704;2023-06-22T02:49:23;13.17;;;11.87;;
27161;SDS011;54464;50.558;9.704;2023-06-22T02:51:49;12.97;;;11.70;;
27161;SDS011;54464;50.558;9.704;2023-06-22T02:54:15;13.30;;;11.97;;
27161;SDS011;54464;50.558;9.704;2023-06-22T02:56:41;13.30;;;12.03;;
27161;SDS011;54464;50.558;9.704;2023-06-22T02:59:14;13.50;;;12.27;;
27161;SDS011;54464;50.558;9.704;2023-06-22T03:01:46;12.77;;;11.57;;
27161;SDS011;54464;50.558;9.704;2023-06-22T03:04:12;12.63;;;11.33;;
27161;SDS011;54464;50.558;9.704;2023-06-22T03:06:38;13.60;;;12.30;;
27161;SDS011;54464;50.558;9.704;2023-06-22T03:09:06;13.00;;;11.80;;
27161;SDS011;54464;50.558;9.704;2023-06-22T03:11:33;12.70;;;11.50;;
27161;SDS011;54464;50.558;9.704;2023-06-22T03:14:08;13.50;;;11.50;;
27161;SDS011;54464;50.558;9.704;2023-06-22T03:16:33;12.93;;;11.63;;
27161;SDS011;54464;50.558;9.704;2023-06-22T03:18:59;14.73;;;12.20;;
27161;SDS011;54464;50.558;9.704;2023-06-22T03:21:28;12.70;;;11.40;;
27161;SDS011;54464;50.558;9.704;2023-06-22T03:23:59;12.57;;;11.37;;
27161;SDS011;54464;50.558;9.704;2023-06-22T03:26:25;12.60;;;11.30;;
27161;SDS011;54464;50.558;9.704;2023-06-22T03:28:51;11.03;;;9.93;;
27161;SDS011;54464;50.558;9.704;2023-06-22T03:31:17;11.87;;;10.57;;
27161;SDS011;54464;50.558;9.704;2023-06-22T03:33:46;11.77;;;10.63;;
27161;SDS011;54464;50.558;9.704;2023-06-22T03:36:14;11.40;;;10.20;;
27161;SDS011;54464;50.558;9.704;2023-06-22T03:38:43;12.27;;;10.07;;
27161;SDS011;54464;50.558;9.704;2023-06-22T03:41:12;11.20;;;10.00;;
27161;SDS011;54464;50.558;9.704;2023-06-22T03:43:41;11.70;;;10.30;;
27161;SDS011;54464;50.558;9.704;2023-06-22T03:46:09;10.70;;;9.70;;
27161;SDS011;54464;50.558;9.704;2023-06-22T03:48:35;11.60;;;10.40;;
27161;SDS011;54464;50.558;9.704;2023-06-22T03:51:03;10.43;;;9.43;;
27161;SDS011;54464;50.558;9.704;2023-06-22T03:53:37;11.40;;;10.30;;
27161;SDS011;54464;50.558;9.704;2023-06-22T03:56:03;10.63;;;9.53;;
27161;SDS011;54464;50.558;9.704;2023-06-22T03:58:28;10.97;;;9.97;;
27161;SDS011;54464;50.558;9.704;2023-06-22T04:00:57;10.23;;;9.23;;
27161;SDS011;54464;50.558;9.704;2023-06-22T04:03:25;11.40;;;9.53;;
27161;SDS011;54464;50.558;9.704;2023-06-22T04:05:51;12.53;;;9.03;;
27161;SDS011;54464;50.558;9.704;2023-06-22T04:08:17;10.87;;;9.50;;
27161;SDS011;54464;50.558;9.704;2023-06-22T04:10:46;9.90;;;8.90;;
27161;SDS011;54464;50.558;9.704;2023-06-22T04:13:11;11.50;;;10.40;;
27161;SDS011;54464;50.558;9.704;2023-06-22T04:15:37;11.03;;;9.23;;
27161;SDS011;54464;50.558;9.704;2023-06-22T04:18:08;10.10;;;9.10;;
27161;SDS011;54464;50.558;9.704;2023-06-22T04:20:36;9.70;;;8.80;;
27161;SDS011;54464;50.558;9.704;2023-06-22T04:23:05;10.20;;;9.20;;
27161;SDS011;54464;50.558;9.704;2023-06-22T04:25:33;10.13;;;9.13;;
27161;SDS011;54464;50.558;9.704;2023-06-22T04:27:59;10.70;;;9.67;;
27161;SDS011;54464;50.558;9.704;2023-06-22T04:30:32;10.17;;;9.27;;
27161;SDS011;54464;50.558;9.704;2023-06-22T04:33:04;10.07;;;8.63;;
27161;SDS011;54464;50.558;9.704;2023-06-22T04:35:35;10.57;;;9.40;;
27161;SDS011;54464;50.558;9.704;2023-06-22T04:38:00;9.17;;;8.37;;
27161;SDS011;54464;50.558;9.704;2023-06-22T04:40:28;9.90;;;8.90;;
27161;SDS011;54464;50.558;9.704;2023-06-22T04:42:54;9.30;;;8.40;;
27161;SDS011;54464;50.558;9.704;2023-06-22T04:45:20;9.80;;;8.90;;
27161;SDS011;54464;50.558;9.704;2023-06-22T04:47:46;10.90;;;9.80;;
27161;SDS011;54464;50.558;9.704;2023-06-22T04:50:12;11.60;;;9.77;;
27161;SDS011;54464;50.558;9.704;2023-06-22T04:52:40;12.30;;;10.77;;
27161;SDS011;54464;50.558;9.704;2023-06-22T04:55:06;10.90;;;9.67;;
27161;SDS011;54464;50.558;9.704;2023-06-22T04:57:32;10.83;;;9.73;;
27161;SDS011;54464;50.558;9.704;2023-06-22T04:59:59;10.17;;;9.20;;
27161;SDS011;54464;50.558;9.704;2023-06-22T05:02:44;9.67;;;8.77;;
27161;SDS011;54464;50.558;9.704;2023-06-22T05:05:10;9.80;;;8.80;;
27161;SDS011;54464;50.558;9.704;2023-06-22T05:07:45;9.10;;;8.20;;
27161;SDS011;54464;50.558;9.704;2023-06-22T05:10:13;8.87;;;7.97;;
27161;SDS011;54464;50.558;9.704;2023-06-22T05:12:39;11.43;;;7.83;;
27161;SDS011;54464;50.558;9.704;2023-06-22T05:15:07;8.33;;;7.53;;
27161;SDS011;54464;50.558;9.704;2023-06-22T05:17:34;9.80;;;8.60;;
27161;SDS011;54464;50.558;9.704;2023-06-22T05:20:01;8.23;;;7.43;;
27161;SDS011;54464;50.558;9.704;2023-06-22T05:22:27;8.97;;;7.80;;
27161;SDS011;54464;50.558;9.704;2023-06-22T05:24:53;10.37;;;9.23;;
27161;SDS011;54464;50.558;9.704;2023-06-22T05:27:19;10.70;;;9.57;;
27161;SDS011;54464;50.558;9.704;2023-06-22T05:29:44;10.53;;;9.00;;
27161;SDS011;54464;50.558;9.704;2023-06-22T05:32:10;10.50;;;9.40;;
27161;SDS011;54464;50.558;9.704;2023-06-22T05:34:35;10.90;;;9.90;;
27161;SDS011;54464;50.558;9.704;2023-06-22T05:37:01;10.73;;;9.73;;
27161;SDS011;54464;50.558;9.704;2023-06-22T05:39:27;11.77;;;10.67;;
27161;SDS011;54464;50.558;9.704;2023-06-22T05:42:13;11.93;;;10.73;;
27161;SDS011;54464;50.558;9.704;2023-06-22T05:44:50;13.20;;;10.80;;
27161;SDS011;54464;50.558;9.704;2023-06-22T05:47:16;12.03;;;10.83;;
27161;SDS011;54464;50.558;9.704;2023-06-22T05:49:41;13.40;;;11.73;;
27161;SDS011;54464;50.558;9.704;2023-06-22T05:52:07;13.10;;;11.80;;
27161;SDS011;54464;50.558;9.704;2023-06-22T05:54:32;12.67;;;11.37;;
27161;SDS011;54464;50.558;9.704;2023-06-22T05:56:58;12.63;;;11.23;;
27161;SDS011;54464;50.558;9.704;2023-06-22T05:59:23;12.93;;;11.57;;
27161;SDS011;54464;50.558;9.704;2023-06-22T06:01:49;11.70;;;10.50;;
27161;SDS011;54464;50.558;9.704;2023-06-22T06:04:18;12.70;;;11.40;;
27161;SDS011;54464;50.558;9.704;2023-06-22T06:06:44;12.53;;;11.23;;
27161;SDS011;54464;50.558;9.704;2023-06-22T06:09:09;13.07;;;10.97;;
27161;SDS011;54464;50.558;9.704;2023-06-22T06:11:36;11.77;;;10.53;;
27161;SDS011;54464;50.558;9.704;2023-06-22T06:14:02;13.43;;;10.53;;
27161;SDS011;54464;50.558;9.704;2023-06-22T06:16:28;13.37;;;10.93;;
27161;SDS011;54464;50.558;9.704;2023-06-22T06:18:53;11.70;;;10.60;;
27161;SDS011;54464;50.558;9.704;2023-06-22T06:21:41;11.97;;;10.67;;
27161;SDS011;54464;50.558;9.704;2023-06-22T06:24:09;11.33;;;10.23;;
27161;SDS011;54464;50.558;9.704;2023-06-22T06:26:34;11.47;;;10.27;;
27161;SDS011;54464;50.558;9.704;2023-06-22T06:29:01;12.23;;;11.03;;
27161;SDS011;54464;50.558;9.704;2023-06-22T06:31:27;11.30;;;10.27;;
27161;SDS011;54464;50.558;9.704;2023-06-22T06:33:53;12.27;;;10.97;;
27161;SDS011;54464;50.558;9.704;2023-06-22T06:36:19;11.73;;;10.50;;
27161;SDS011;54464;50.558;9.704;2023-06-22T06:38:45;10.80;;;9.77;;
27161;SDS011;54464;50.558;9.704;2023-06-22T06:41:14;10.03;;;8.97;;
27161;SDS011;54464;50.558;9.704;2023-06-22T06:43:40;10.60;;;9.60;;
27161;SDS011;54464;50.558;9.704;2023-06-22T06:46:08;10.07;;;8.50;;
27161;SDS011;54464;50.558;9.704;2023-06-22T06:48:36;9.50;;;8.60;;
27161;SDS011;54464;50.558;9.704;2023-06-22T06:51:05;8.95;;;7.90;;
27161;SDS011;54464;50.558;9.704;2023-06-22T06:53:34;10.10;;;9.13;;
27161;SDS011;54464;50.558;9.704;2023-06-22T06:56:02;9.10;;;7.95;;
27161;SDS011;54464;50.558;9.704;2023-06-22T06:58:28;9.38;;;8.48;;
27161;SDS011;54464;50.558;9.704;2023-06-22T07:00:54;9.13;;;8.23;;
27161;SDS011;54464;50.558;9.704;2023-06-22T07:03:20;9.10;;;8.20;;
27161;SDS011;54464;50.558;9.704;2023-06-22T07:05:45;8.87;;;7.83;;
27161;SDS011;54464;50.558;9.704;2023-06-22T07:08:11;8.90;;;8.00;;
27161;SDS011;54464;50.558;9.704;2023-06-22T07:10:36;9.70;;;8.75;;
27161;SDS011;54464;50.558;9.704;2023-06-22T07:13:02;8.88;;;8.02;;
27161;SDS011;54464;50.558;9.704;2023-06-22T07:15:27;8.45;;;7.57;;
27161;SDS011;54464;50.558;9.704;2023-06-22T07:17:53;9.82;;;8.82;;
27161;SDS011;54464;50.558;9.704;2023-06-22T07:20:19;9.02;;;8.10;;
27161;SDS011;54464;50.558;9.704;2023-06-22T07:22:44;8.77;;;7.78;;
27161;SDS011;54464;50.558;9.704;2023-06-22T07:25:10;9.00;;;8.07;;
27161;SDS011;54464;50.558;9.704;2023-06-22T07:27:39;8.77;;;7.93;;
27161;SDS011;54464;50.558;9.704;2023-06-22T07:30:10;8.85;;;7.95;;
27161;SDS011;54464;50.558;9.704;2023-06-22T07:32:36;8.63;;;7.72;;
27161;SDS011;54464;50.558;9.704;2023-06-22T07:35:02;9.18;;;8.27;;
27161;SDS011;54464;50.558;9.704;2023-06-22T07:37:29;8.45;;;7.65;;
27161;SDS011;54464;50.558;9.704;2023-06-22T07:39:55;8.25;;;7.45;;
27161;SDS011;54464;50.558;9.704;2023-06-22T07:42:25;9.07;;;8.18;;
27161;SDS011;54464;50.558;9.704;2023-06-22T07:44:51;8.95;;;7.82;;
27161;SDS011;54464;50.558;9.704;2023-06-22T07:47:17;8.20;;;7.40;;
27161;SDS011;54464;50.558;9.704;2023-06-22T07:49:50;8.65;;;7.85;;
27161;SDS011;54464;50.558;9.704;2023-06-22T07:52:15;8.55;;;7.75;;
27161;SDS011;54464;50.558;9.704;2023-06-22T07:54:41;9.38;;;8.00;;
27161;SDS011;54464;50.558;9.704;2023-06-22T07:57:06;7.90;;;7.20;;
27161;SDS011;54464;50.558;9.704;2023-06-22T07:59:32;8.98;;;8.05;;
27161;SDS011;54464;50.558;9.704;2023-06-22T08:01:58;9.15;;;7.85;;
27161;SDS011;54464;50.558;9.704;2023-06-22T08:04:23;9.55;;;7.68;;
27161;SDS011;54464;50.558;9.704;2023-06-22T08:06:49;8.45;;;7.65;;
27161;SDS011;54464;50.558;9.704;2023-06-22T08:09:14;8.65;;;7.85;;
27161;SDS011;54464;50.558;9.704;2023-06-22T08:11:40;9.50;;;7.80;;
27161;SDS011;54464;50.558;9.704;2023-06-22T08:14:06;9.85;;;7.93;;
27161;SDS011;54464;50.558;9.704;2023-06-22T08:16:31;8.23;;;7.43;;
27161;SDS011;54464;50.558;9.704;2023-06-22T08:18:57;8.15;;;7.35;;
27161;SDS011;54464;50.558;9.704;2023-06-22T08:21:22;8.82;;;7.68;;
27161;SDS011;54464;50.558;9.704;2023-06-22T08:23:48;8.77;;;7.97;;
27161;SDS011;54464;50.558;9.704;2023-06-22T08:26:14;8.30;;;7.25;;
27161;SDS011;54464;50.558;9.704;2023-06-22T08:28:40;7.78;;;7.07;;
27161;SDS011;54464;50.558;9.704;2023-06-22T08:31:05;8.35;;;7.45;;
27161;SDS011;54464;50.558;9.704;2023-06-22T08:33:31;8.32;;;7.53;;
27161;SDS011;54464;50.558;9.704;2023-06-22T08:35:57;7.97;;;7.28;;
27161;SDS011;54464;50.558;9.704;2023-06-22T08:38:25;7.72;;;7.03;;
27161;SDS011;54464;50.558;9.704;2023-06-22T08:40:50;9.40;;;7.53;;
27161;SDS011;54464;50.558;9.704;2023-06-22T08:43:16;8.27;;;7.47;;
27161;SDS011;54464;50.558;9.704;2023-06-22T08:45:42;7.57;;;6.78;;
27161;SDS011;54464;50.558;9.704;2023-06-22T08:48:07;7.53;;;6.78;;
27161;SDS011;54464;50.558;9.704;2023-06-22T08:50:33;7.35;;;6.70;;
27161;SDS011;54464;50.558;9.704;2023-06-22T08:52:58;7.85;;;6.97;;
27161;SDS011;54464;50.558;9.704;2023-06-22T08:55:24;7.20;;;6.60;;
27161;SDS011;54464;50.558;9.704;2023-06-22T08:57:50;7.60;;;6.90;;
27161;SDS011;54464;50.558;9.704;2023-06-22T09:00:16;6.85;;;6.25;;
27161;SDS011;54464;50.558;9.704;2023-06-22T09:02:43;7.20;;;6.50;;
27161;SDS011;54464;50.558;9.704;2023-06-22T09:05:09;6.60;;;6.00;;
27161;SDS011;54464;50.558;9.704;2023-06-22T09:07:35;6.20;;;5.60;;
27161;SDS011;54464;50.558;9.704;2023-06-22T09:10:00;6.78;;;6.07;;
27161;SDS011;54464;50.558;9.704;2023-06-22T09:12:26;7.85;;;5.75;;
27161;SDS011;54464;50.558;9.704;2023-06-22T09:14:52;6.75;;;6.05;;
27161;SDS011;54464;50.558;9.704;2023-06-22T09:17:18;6.60;;;5.93;;
27161;SDS011;54464;50.558;9.704;2023-06-22T09:19:44;6.63;;;5.85;;
27161;SDS011;54464;50.558;9.704;2023-06-22T09:22:10;7.53;;;5.80;;
27161;SDS011;54464;50.558;9.704;2023-06-22T09:24:35;6.28;;;5.65;;
27161;SDS011;54464;50.558;9.704;2023-06-22T09:27:01;5.93;;;5.43;;
27161;SDS011;54464;50.558;9.704;2023-06-22T09:29:26;6.10;;;5.43;;
27161;SDS011;54464;50.558;9.704;2023-06-22T09:31:52;6.20;;;5.60;;
27161;SDS011;54464;50.558;9.704;2023-06-22T09:34:18;6.55;;;5.95;;
27161;SDS011;54464;50.558;9.704;2023-06-22T09:36:45;7.20;;;5.78;;
27161;SDS011;54464;50.558;9.704;2023-06-22T09:39:11;7.40;;;6.70;;
27161;SDS011;54464;50.558;9.704;2023-06-22T09:41:36;7.20;;;5.70;;
27161;SDS011;54464;50.558;9.704;2023-06-22T09:44:02;5.85;;;5.28;;
27161;SDS011;54464;50.558;9.704;2023-06-22T09:46:28;6.40;;;5.80;;
27161;SDS011;54464;50.558;9.704;2023-06-22T09:48:53;6.10;;;5.53;;
27161;SDS011;54464;50.558;9.704;2023-06-22T09:51:19;6.03;;;5.45;;
27161;SDS011;54464;50.558;9.704;2023-06-22T09:53:46;6.40;;;5.80;;
27161;SDS011;54464;50.558;9.704;2023-06-22T09:56:12;6.82;;;6.07;;
27161;SDS011;54464;50.558;9.704;2023-06-22T09:58:40;5.78;;;5.28;;
27161;SDS011;54464;50.558;9.704;2023-06-22T10:01:10;6.30;;;5.70;;
27161;SDS011;54464;50.558;9.704;2023-06-22T10:03:36;5.95;;;5.30;;
27161;SDS011;54464;50.558;9.704;2023-06-22T10:06:02;6.10;;;5.50;;
27161;SDS011;54464;50.558;9.704;2023-06-22T10:08:28;6.45;;;4.70;;
27161;SDS011;54464;50.558;9.704;2023-06-22T10:10:54;6.00;;;5.50;;
27161;SDS011;54464;50.558;9.704;2023-06-22T10:13:19;5.65;;;5.10;;
27161;SDS011;54464;50.558;9.704;2023-06-22T10:15:45;5.30;;;4.80;;
27161;SDS011;54464;50.558;9.704;2023-06-22T10:18:16;6.10;;;5.55;;
27161;SDS011;54464;50.558;9.704;2023-06-22T10:20:42;6.28;;;5.68;;
27161;SDS011;54464;50.558;9.704;2023-06-22T10:23:08;6.88;;;5.57;;
27161;SDS011;54464;50.558;9.704;2023-06-22T10:25:34;5.10;;;4.68;;
27161;SDS011;54464;50.558;9.704;2023-06-22T10:28:00;5.57;;;4.80;;
27161;SDS011;54464;50.558;9.704;2023-06-22T10:30:25;6.30;;;5.15;;
27161;SDS011;54464;50.558;9.704;2023-06-22T10:32:51;6.20;;;5.25;;
27161;SDS011;54464;50.558;9.704;2023-06-22T10:35:17;7.03;;;5.05;;
27161;SDS011;54464;50.558;9.704;2023-06-22T10:37:46;7.57;;;4.97;;
27161;SDS011;54464;50.558;9.704;2023-06-22T10:40:12;5.68;;;5.07;;
27161;SDS011;54464;50.558;9.704;2023-06-22T10:42:38;5.43;;;4.93;;
27161;SDS011;54464;50.558;9.704;2023-06-22T10:45:04;5.60;;;5.00;;
27161;SDS011;54464;50.558;9.704;2023-06-22T10:47:30;5.30;;;4.80;;
27161;SDS011;54464;50.558;9.704;2023-06-22T10:49:56;5.88;;;5.10;;
27161;SDS011;54464;50.558;9.704;2023-06-22T10:52:22;5.47;;;4.97;;
27161;SDS011;54464;50.558;9.704;2023-06-22T10:54:47;5.53;;;4.60;;
27161;SDS011;54464;50.558;9.704;2023-06-22T10:57:13;5.40;;;4.90;;
27161;SDS011;54464;50.558;9.704;2023-06-22T10:59:39;5.82;;;4.38;;
27161;SDS011;54464;50.558;9.704;2023-06-22T11:02:04;5.93;;;5.32;;
27161;SDS011;54464;50.558;9.704;2023-06-22T11:04:30;5.47;;;4.70;;
27161;SDS011;54464;50.558;9.704;2023-06-22T11:06:56;5.18;;;4.68;;
27161;SDS011;54464;50.558;9.704;2023-06-22T11:09:21;4.88;;;4.47;;
27161;SDS011;54464;50.558;9.704;2023-06-22T11:11:47;4.90;;;4.40;;
27161;SDS011;54464;50.558;9.704;2023-06-22T11:14:14;7.10;;;4.80;;
27161;SDS011;54464;50.558;9.704;2023-06-22T11:16:40;5.78;;;4.40;;
27161;SDS011;54464;50.558;9.704;2023-06-22T11:19:05;6.68;;;4.43;;
27161;SDS011;54464;50.558;9.704;2023-06-22T11:21:31;4.57;;;4.07;;
27161;SDS011;54464;50.558;9.704;2023-06-22T11:23:57;5.32;;;4.28;;
27161;SDS011;54464;50.558;9.704;2023-06-22T11:26:23;4.88;;;4.47;;
27161;SDS011;54464;50.558;9.704;2023-06-22T11:28:52;4.30;;;3.90;;
27161;SDS011;54464;50.558;9.704;2023-06-22T11:31:17;4.88;;;4.38;;
27161;SDS011;54464;50.558;9.704;2023-06-22T11:33:43;5.85;;;4.40;;
27161;SDS011;54464;50.558;9.704;2023-06-22T11:36:10;4.40;;;4.00;;
27161;SDS011;54464;50.558;9.704;2023-06-22T11:38:36;4.70;;;4.28;;
27161;SDS011;54464;50.558;9.704;2023-06-22T11:41:04;6.03;;;4.75;;
27161;SDS011;54464;50.558;9.704;2023-06-22T11:43:33;4.82;;;4.00;;
27161;SDS011;54464;50.558;9.704;2023-06-22T11:45:59;5.00;;;4.60;;
27161;SDS011;54464;50.558;9.704;2023-06-22T11:48:26;5.72;;;4.47;;
27161;SDS011;54464;50.558;9.704;2023-06-22T11:50:52;4.45;;;4.05;;
27161;SDS011;54464;50.558;9.704;2023-06-22T11:53:17;4.93;;;4.30;;
27161;SDS011;54464;50.558;9.704;2023-06-22T11:55:43;6.25;;;4.05;;
27161;SDS011;54464;50.558;9.704;2023-06-22T11:58:09;4.82;;;4.38;;
27161;SDS011;54464;50.558;9.704;2023-06-22T12:00:36;4.28;;;3.88;;
27161;SDS011;54464;50.558;9.704;2023-06-22T12:03:02;5.35;;;4.32;;
27161;SDS011;54464;50.558;9.704;2023-06-22T12:05:28;5.22;;;4.72;;
27161;SDS011;54464;50.558;9.704;2023-06-22T12:07:53;7.47;;;4.78;;
27161;SDS011;54464;50.558;9.704;2023-06-22T12:10:20;7.50;;;4.60;;
27161;SDS011;54464;50.558;9.704;2023-06-22T12:12:48;5.20;;;4.70;;
27161;SDS011;54464;50.558;9.704;2023-06-22T12:15:28;9.15;;;5.07;;
27161;SDS011;54464;50.558;9.704;2023-06-22T12:17:54;5.78;;;4.95;;
27161;SDS011;54464;50.558;9.704;2023-06-22T12:20:19;6.90;;;4.93;;
27161;SDS011;54464;50.558;9.704;2023-06-22T12:22:45;6.28;;;4.55;;
27161;SDS011;54464;50.558;9.704;2023-06-22T12:25:10;5.15;;;4.20;;
27161;SDS011;54464;50.558;9.704;2023-06-22T12:27:36;6.40;;;4.93;;
27161;SDS011;54464;50.558;9.704;2023-06-22T12:30:02;5.35;;;4.65;;
27161;SDS011;54464;50.558;9.704;2023-06-22T12:32:28;6.22;;;5.32;;
27161;SDS011;54464;50.558;9.704;2023-06-22T12:34:55;7.32;;;5.05;;
27161;SDS011;54464;50.558;9.704;2023-06-22T12:37:21;5.88;;;4.97;;
27161;SDS011;54464;50.558;9.704;2023-06-22T12:39:46;7.63;;;5.20;;
27161;SDS011;54464;50.558;9.704;2023-06-22T12:42:12;6.63;;;5.28;;
27161;SDS011;54464;50.558;9.704;2023-06-22T12:44:38;5.68;;;5.00;;
27161;SDS011;54464;50.558;9.704;2023-06-22T12:47:07;5.47;;;4.97;;
27161;SDS011;54464;50.558;9.704;2023-06-22T12:49:39;5.55;;;4.90;;
27161;SDS011;54464;50.558;9.704;2023-06-22T12:52:11;6.55;;;4.85;;
27161;SDS011;54464;50.558;9.704;2023-06-22T12:54:36;6.35;;;5.00;;
27161;SDS011;54464;50.558;9.704;2023-06-22T12:57:04;6.68;;;4.65;;
27161;SDS011;54464;50.558;9.704;2023-06-22T12:59:30;6.38;;;5.00;;
27161;SDS011;54464;50.558;9.704;2023-06-22T13:01:56;5.75;;;5.15;;
27161;SDS011;54464;50.558;9.704;2023-06-22T13:04:21;7.15;;;5.47;;
27161;SDS011;54464;50.558;9.704;2023-06-22T13:06:47;5.93;;;4.93;;
27161;SDS011;54464;50.558;9.704;2023-06-22T13:09:17;6.00;;;5.32;;
27161;SDS011;54464;50.558;9.704;2023-06-22T13:11:43;7.43;;;5.32;;
27161;SDS011;54464;50.558;9.704;2023-06-22T13:14:09;8.38;;;5.75;;
27161;SDS011;54464;50.558;9.704;2023-06-22T13:16:34;6.43;;;5.05;;
27161;SDS011;54464;50.558;9.704;2023-06-22T13:19:00;6.60;;;5.43;;
27161;SDS011;54464;50.558;9.704;2023-06-22T13:21:26;6.22;;;5.53;;
27161;SDS011;54464;50.558;9.704;2023-06-22T13:23:51;6.57;;;5.47;;
27161;SDS011;54464;50.558;9.704;2023-06-22T13:26:17;6.28;;;5.38;;
27161;SDS011;54464;50.558;9.704;2023-06-22T13:28:45;6.10;;;5.15;;
27161;SDS011;54464;50.558;9.704;2023-06-22T13:31:18;7.65;;;5.80;;
27161;SDS011;54464;50.558;9.704;2023-06-22T13:33:52;5.88;;;5.20;;
27161;SDS011;54464;50.558;9.704;2023-06-22T13:36:18;6.97;;;5.40;;
27161;SDS011;54464;50.558;9.704;2023-06-22T13:38:50;7.07;;;6.00;;
27161;SDS011;54464;50.558;9.704;2023-06-22T13:41:15;7.15;;;5.95;;
27161;SDS011;54464;50.558;9.704;2023-06-22T13:43:41;7.07;;;5.68;;
27161;SDS011;54464;50.558;9.704;2023-06-22T13:46:07;6.03;;;5.40;;
27161;SDS011;54464;50.558;9.704;2023-06-22T13:48:32;6.68;;;5.82;;
27161;SDS011;54464;50.558;9.704;2023-06-22T13:51:00;6.78;;;6.00;;
27161;SDS011;54464;50.558;9.704;2023-06-22T13:53:29;7.88;;;5.93;;
27161;SDS011;54464;50.558;9.704;2023-06-22T13:55:55;8.85;;;6.13;;
27161;SDS011;54464;50.558;9.704;2023-06-22T13:58:22;8.02;;;6.13;;
27161;SDS011;54464;50.558;9.704;2023-06-22T14:00:59;6.75;;;6.07;;
27161;SDS011;54464;50.558;9.704;2023-06-22T14:03:33;9.38;;;6.65;;
27161;SDS011;54464;50.558;9.704;2023-06-22T14:05:58;7.90;;;6.30;;
27161;SDS011;54464;50.558;9.704;2023-06-22T14:08:24;7.63;;;6.45;;
27161;SDS011;54464;50.558;9.704;2023-06-22T14:11:10;7.50;;;6.53;;
27161;SDS011;54464;50.558;9.704;2023-06-22T14:13:35;10.75;;;6.50;;
27161;SDS011;54464;50.558;9.704;2023-06-22T14:16:09;7.68;;;6.47;;
27161;SDS011;54464;50.558;9.704;2023-06-22T14:18:40;9.23;;;6.80;;
27161;SDS011;54464;50.558;9.704;2023-06-22T14:21:06;8.18;;;6.53;;
27161;SDS011;54464;50.558;9.704;2023-06-22T14:23:32;9.30;;;6.15;;
27161;SDS011;54464;50.558;9.704;2023-06-22T14:25:58;9.55;;;6.70;;
27161;SDS011;54464;50.558;9.704;2023-06-22T14:28:23;8.77;;;6.30;;
27161;SDS011;54464;50.558;9.704;2023-06-22T14:30:52;7.90;;;6.47;;
27161;SDS011;54464;50.558;9.704;2023-06-22T14:33:28;8.00;;;6.38;;
27161;SDS011;54464;50.558;9.704;2023-06-22T14:35:56;8.48;;;6.28;;
27161;SDS011;54464;50.558;9.704;2023-06-22T14:38:22;8.32;;;6.63;;
27161;SDS011;54464;50.558;9.704;2023-06-22T14:40:47;8.68;;;5.75;;
27161;SDS011;54464;50.558;9.704;2023-06-22T14:43:23;10.02;;;6.38;;
27161;SDS011;54464;50.558;9.704;2023-06-22T14:45:50;6.05;;;5.28;;